createdAt,value
2016-09-03T00:00:33.390Z,0
2016-09-03T00:01:33.378Z,0
2016-09-03T00:02:33.360Z,0
2016-09-03T00:03:33.332Z,0
2016-09-03T00:04:33.316Z,0
2016-09-03T00:05:33.295Z,0
2016-09-03T00:06:33.277Z,0
2016-09-03T00:07:33.270Z,0
2016-09-03T00:08:33.236Z,0
2016-09-03T00:09:33.216Z,0
2016-09-03T00:10:33.210Z,0
2016-09-03T00:11:33.182Z,0
2016-09-03T00:12:33.160Z,0
2016-09-03T00:13:33.140Z,0
2016-09-03T00:14:33.125Z,0
2016-09-03T00:15:33.798Z,0
2016-09-03T00:16:33.085Z,0
2016-09-03T00:17:33.061Z,0
2016-09-03T00:18:33.046Z,0
2016-09-03T00:19:33.029Z,0
2016-09-03T00:20:33.007Z,0
2016-09-03T00:21:33.001Z,0
2016-09-03T00:22:32.970Z,0
2016-09-03T00:23:32.953Z,0
2016-09-03T00:24:32.928Z,0
2016-09-03T00:25:32.903Z,0
2016-09-03T00:26:32.895Z,0
2016-09-03T00:27:32.868Z,0
2016-09-03T00:28:32.846Z,0
2016-09-03T00:29:32.831Z,0
2016-09-03T00:30:32.827Z,0
2016-09-03T00:31:32.790Z,0
2016-09-03T00:32:32.776Z,0
2016-09-03T00:33:32.750Z,0
2016-09-03T00:34:32.732Z,0
2016-09-03T00:35:32.713Z,0
2016-09-03T00:36:32.688Z,0
2016-09-03T00:37:32.675Z,0
2016-09-03T00:38:32.653Z,0
2016-09-03T00:39:32.630Z,0
2016-09-03T00:40:32.616Z,0
2016-09-03T00:41:32.594Z,0
2016-09-03T00:42:32.579Z,0
2016-09-03T00:43:32.556Z,0
2016-09-03T00:44:32.538Z,0
2016-09-03T00:45:32.515Z,0
2016-09-03T00:46:32.498Z,0
2016-09-03T00:47:32.478Z,0
2016-09-03T00:48:32.460Z,0
2016-09-03T00:49:33.130Z,0
2016-09-03T00:50:32.415Z,0
2016-09-03T00:51:32.410Z,0
2016-09-03T00:52:32.388Z,0
2016-09-03T00:53:32.371Z,0
2016-09-03T00:54:32.338Z,0
2016-09-03T00:55:32.322Z,0
2016-09-03T00:56:32.313Z,0
2016-09-03T00:57:32.288Z,0
2016-09-03T00:58:32.264Z,0
2016-09-03T00:59:32.246Z,0
2016-09-03T01:00:32.222Z,0
2016-09-03T01:01:32.198Z,0
2016-09-03T01:02:32.188Z,0
2016-09-03T01:03:32.160Z,0
2016-09-03T01:04:32.137Z,0
2016-09-03T01:05:32.120Z,0
2016-09-03T01:06:32.106Z,0
2016-09-03T01:07:32.090Z,0
2016-09-03T01:08:32.067Z,0
2016-09-03T01:09:32.047Z,0
2016-09-03T01:10:32.720Z,0
2016-09-03T01:11:32.005Z,0
2016-09-03T01:12:31.983Z,0
2016-09-03T01:13:31.969Z,0
2016-09-03T01:14:31.947Z,0
2016-09-03T01:15:31.922Z,0
2016-09-03T01:16:31.905Z,0
2016-09-03T01:17:31.891Z,0
2016-09-03T01:18:31.862Z,0
2016-09-03T01:19:31.851Z,0
2016-09-03T01:20:31.825Z,0
2016-09-03T01:21:31.821Z,0
2016-09-03T01:22:31.785Z,0
2016-09-03T01:23:31.765Z,0
2016-09-03T01:24:31.749Z,0
2016-09-03T01:25:31.725Z,0
2016-09-03T01:26:31.703Z,0
2016-09-03T01:27:31.690Z,0
2016-09-03T01:28:31.665Z,0
2016-09-03T01:29:31.642Z,0
2016-09-03T01:30:31.635Z,0
2016-09-03T01:31:31.610Z,0
2016-09-03T01:32:31.587Z,0
2016-09-03T01:33:31.566Z,0
2016-09-03T01:34:31.549Z,0
2016-09-03T01:35:31.526Z,0
2016-09-03T01:36:31.507Z,0
2016-09-03T01:37:31.488Z,0
2016-09-03T01:38:31.471Z,0
2016-09-03T01:39:31.450Z,0
2016-09-03T01:40:31.427Z,0
2016-09-03T01:41:31.416Z,0
2016-09-03T01:42:31.388Z,0
2016-09-03T01:43:31.364Z,0
2016-09-03T01:44:31.351Z,0
2016-09-03T01:45:32.020Z,0
2016-09-03T01:46:31.314Z,0
2016-09-03T01:47:31.290Z,0
2016-09-03T01:48:31.269Z,0
2016-09-03T01:49:31.250Z,0
2016-09-03T01:50:31.231Z,0
2016-09-03T01:51:31.206Z,0
2016-09-03T01:52:31.191Z,0
2016-09-03T01:53:31.174Z,0
2016-09-03T01:54:31.145Z,0
2016-09-03T01:55:31.134Z,0
2016-09-03T01:56:31.115Z,0
2016-09-03T01:57:31.089Z,0
2016-09-03T01:58:31.084Z,0
2016-09-03T01:59:31.050Z,0
2016-09-03T02:00:31.043Z,0
2016-09-03T02:01:31.009Z,0
2016-09-03T02:02:30.983Z,0
2016-09-03T02:03:30.966Z,0
2016-09-03T02:04:30.947Z,0
2016-09-03T02:05:30.922Z,0
2016-09-03T02:06:30.907Z,0
2016-09-03T02:07:30.887Z,0
2016-09-03T02:08:30.865Z,0
2016-09-03T02:09:30.850Z,0
2016-09-03T02:10:30.837Z,0
2016-09-03T02:11:30.809Z,0
2016-09-03T02:12:30.792Z,0
2016-09-03T02:13:30.762Z,0
2016-09-03T02:14:30.759Z,0
2016-09-03T02:15:31.416Z,0
2016-09-03T02:16:30.700Z,0
2016-09-03T02:17:30.689Z,0
2016-09-03T02:18:30.679Z,0
2016-09-03T02:19:31.347Z,0
2016-09-03T02:20:30.629Z,0
2016-09-03T02:21:30.603Z,0
2016-09-03T02:22:30.581Z,0
2016-09-03T02:23:30.564Z,0
2016-09-03T02:24:30.538Z,0
2016-09-03T02:25:30.524Z,0
2016-09-03T02:26:30.502Z,0
2016-09-03T02:27:30.478Z,0
2016-09-03T02:28:30.461Z,0
2016-09-03T02:29:30.444Z,0
2016-09-03T02:30:30.416Z,0
2016-09-03T02:31:30.399Z,0
2016-09-03T02:32:30.375Z,0
2016-09-03T02:33:30.354Z,0
2016-09-03T02:34:30.335Z,0
2016-09-03T02:35:30.314Z,0
2016-09-03T02:36:30.292Z,0
2016-09-03T02:37:30.281Z,0
2016-09-03T02:38:30.256Z,0
2016-09-03T02:39:30.235Z,0
2016-09-03T02:40:30.228Z,0
2016-09-03T02:41:30.199Z,0
2016-09-03T02:42:30.174Z,0
2016-09-03T02:43:30.154Z,0
2016-09-03T02:44:30.132Z,0
2016-09-03T02:45:30.114Z,0
2016-09-03T02:46:30.089Z,0
2016-09-03T02:47:30.066Z,0
2016-09-03T02:48:30.060Z,0
2016-09-03T02:49:30.029Z,0
2016-09-03T02:50:30.008Z,0
2016-09-03T02:51:29.988Z,0
2016-09-03T02:52:29.965Z,0
2016-09-03T02:53:29.946Z,0
2016-09-03T02:54:29.926Z,0
2016-09-03T02:55:29.910Z,0
2016-09-03T02:56:29.887Z,0
2016-09-03T02:57:29.865Z,0
2016-09-03T02:58:29.840Z,0
2016-09-03T02:59:29.823Z,0
2016-09-03T03:00:29.799Z,0
2016-09-03T03:01:29.777Z,0
2016-09-03T03:02:29.761Z,0
2016-09-03T03:03:29.741Z,0
2016-09-03T03:04:29.718Z,0
2016-09-03T03:05:29.702Z,0
2016-09-03T03:06:29.673Z,0
2016-09-03T03:07:29.656Z,0
2016-09-03T03:08:29.634Z,0
2016-09-03T03:09:29.612Z,0
2016-09-03T03:10:29.599Z,0
2016-09-03T03:11:29.572Z,0
2016-09-03T03:12:29.557Z,0
2016-09-03T03:13:29.532Z,0
2016-09-03T03:14:29.508Z,0
2016-09-03T03:15:29.489Z,0
2016-09-03T03:16:29.466Z,0
2016-09-03T03:17:29.451Z,0
2016-09-03T03:18:29.424Z,0
2016-09-03T03:19:29.412Z,0
2016-09-03T03:20:29.384Z,0
2016-09-03T03:21:29.365Z,0
2016-09-03T03:22:29.340Z,0
2016-09-03T03:23:29.329Z,0
2016-09-03T03:24:29.299Z,0
2016-09-03T03:25:29.286Z,0
2016-09-03T03:26:29.260Z,0
2016-09-03T03:27:29.245Z,0
2016-09-03T03:28:29.223Z,0
2016-09-03T03:29:29.203Z,0
2016-09-03T03:30:29.177Z,0
2016-09-03T03:31:29.166Z,0
2016-09-03T03:32:29.133Z,0
2016-09-03T03:33:29.109Z,0
2016-09-03T03:34:29.094Z,0
2016-09-03T03:35:29.762Z,0
2016-09-03T03:36:29.049Z,0
2016-09-03T03:37:29.030Z,0
2016-09-03T03:38:29.010Z,0
2016-09-03T03:39:28.989Z,0
2016-09-03T03:40:28.967Z,0
2016-09-03T03:41:28.944Z,0
2016-09-03T03:42:28.925Z,0
2016-09-03T03:43:28.908Z,0
2016-09-03T03:44:28.884Z,0
2016-09-03T03:45:28.862Z,0
2016-09-03T03:46:28.840Z,0
2016-09-03T03:47:28.813Z,0
2016-09-03T03:48:28.805Z,0
2016-09-03T03:49:28.782Z,0
2016-09-03T03:50:28.765Z,0
2016-09-03T03:51:28.735Z,0
2016-09-03T03:52:28.718Z,0
2016-09-03T03:53:28.693Z,0
2016-09-03T03:54:28.672Z,0
2016-09-03T03:55:28.651Z,0
2016-09-03T03:56:28.634Z,0
2016-09-03T03:57:28.613Z,0
2016-09-03T03:58:28.584Z,0
2016-09-03T03:59:28.564Z,0
2016-09-03T04:00:28.544Z,0
2016-09-03T04:01:28.521Z,0
2016-09-03T04:02:28.503Z,0
2016-09-03T04:03:28.479Z,0
2016-09-03T04:04:28.459Z,0
2016-09-03T04:05:28.446Z,0
2016-09-03T04:06:28.413Z,0
2016-09-03T04:07:28.395Z,0
2016-09-03T04:08:28.379Z,0
2016-09-03T04:09:28.354Z,0
2016-09-03T04:10:28.333Z,0
2016-09-03T04:11:28.313Z,0
2016-09-03T04:12:28.289Z,0
2016-09-03T04:13:28.269Z,0
2016-09-03T04:14:28.245Z,0
2016-09-03T04:15:28.228Z,0
2016-09-03T04:16:28.208Z,0
2016-09-03T04:17:28.181Z,0
2016-09-03T04:18:28.162Z,0
2016-09-03T04:19:28.141Z,0
2016-09-03T04:20:28.119Z,0
2016-09-03T04:21:28.104Z,0
2016-09-03T04:22:28.090Z,0
2016-09-03T04:23:28.063Z,0
2016-09-03T04:24:28.034Z,0
2016-09-03T04:25:28.018Z,0
2016-09-03T04:26:27.994Z,0
2016-09-03T04:27:27.973Z,0
2016-09-03T04:28:27.970Z,0
2016-09-03T04:29:27.929Z,0
2016-09-03T04:30:27.919Z,0
2016-09-03T04:31:27.888Z,0
2016-09-03T04:32:27.862Z,0
2016-09-03T04:33:27.859Z,0
2016-09-03T04:34:27.837Z,0
2016-09-03T04:35:27.798Z,0
2016-09-03T04:36:27.783Z,5
2016-09-03T04:37:27.761Z,5
2016-09-03T04:38:27.749Z,5
2016-09-03T04:39:27.720Z,5
2016-09-03T04:40:28.401Z,5
2016-09-03T04:41:27.687Z,5
2016-09-03T04:42:27.656Z,10
2016-09-03T04:43:27.632Z,10
2016-09-03T04:44:27.615Z,10
2016-09-03T04:45:27.590Z,10
2016-09-03T04:46:27.568Z,10
2016-09-03T04:47:27.551Z,15
2016-09-03T04:48:27.528Z,15
2016-09-03T04:49:27.529Z,15
2016-09-03T04:50:27.492Z,15
2016-09-03T04:51:27.466Z,15
2016-09-03T04:52:27.447Z,20
2016-09-03T04:53:27.433Z,20
2016-09-03T04:54:27.401Z,25
2016-09-03T04:55:27.386Z,25
2016-09-03T04:56:27.361Z,30
2016-09-03T04:57:27.342Z,30
2016-09-03T04:58:27.322Z,30
2016-09-03T04:59:27.301Z,35
2016-09-03T05:00:27.278Z,35
2016-09-03T05:01:27.274Z,40
2016-09-03T05:02:27.244Z,40
2016-09-03T05:03:27.219Z,45
2016-09-03T05:04:27.197Z,45
2016-09-03T05:05:27.174Z,50
2016-09-03T05:06:27.155Z,55
2016-09-03T05:07:27.137Z,55
2016-09-03T05:08:27.109Z,60
2016-09-03T05:09:27.094Z,60
2016-09-03T05:10:27.071Z,65
2016-09-03T05:11:27.051Z,65
2016-09-03T05:12:27.031Z,70
2016-09-03T05:13:27.011Z,75
2016-09-03T05:14:26.989Z,80
2016-09-03T05:15:27.663Z,85
2016-09-03T05:16:26.947Z,90
2016-09-03T05:17:27.618Z,95
2016-09-03T05:18:26.917Z,95
2016-09-03T05:19:26.900Z,100
2016-09-03T05:20:26.869Z,105
2016-09-03T05:21:26.850Z,110
2016-09-03T05:22:26.827Z,115
2016-09-03T05:23:26.809Z,120
2016-09-03T05:24:26.788Z,120
2016-09-03T05:25:26.763Z,130
2016-09-03T05:26:26.895Z,135
2016-09-03T05:27:26.732Z,135
2016-09-03T05:28:26.717Z,140
2016-09-03T05:29:26.689Z,145
2016-09-03T05:30:26.668Z,150
2016-09-03T05:31:26.650Z,155
2016-09-03T05:32:26.631Z,160
2016-09-03T05:33:26.614Z,165
2016-09-03T05:34:26.593Z,170
2016-09-03T05:35:26.567Z,175
2016-09-03T05:36:26.546Z,175
2016-09-03T05:37:26.535Z,180
2016-09-03T05:38:26.509Z,185
2016-09-03T05:39:26.487Z,190
2016-09-03T05:40:26.469Z,190
2016-09-03T05:41:26.454Z,190
2016-09-03T05:42:26.425Z,195
2016-09-03T05:43:26.407Z,190
2016-09-03T05:44:26.401Z,190
2016-09-03T05:45:26.368Z,190
2016-09-03T05:46:26.346Z,190
2016-09-03T05:47:26.331Z,185
2016-09-03T05:48:26.306Z,185
2016-09-03T05:49:26.984Z,195
2016-09-03T05:50:26.268Z,200
2016-09-03T05:51:26.246Z,205
2016-09-03T05:52:26.241Z,210
2016-09-03T05:53:26.206Z,210
2016-09-03T05:54:26.201Z,215
2016-09-03T05:55:26.167Z,220
2016-09-03T05:56:26.149Z,230
2016-09-03T05:57:26.130Z,230
2016-09-03T05:58:26.113Z,235
2016-09-03T05:59:26.087Z,245
2016-09-03T06:00:26.071Z,250
2016-09-03T06:01:26.056Z,260
2016-09-03T06:02:26.031Z,270
2016-09-03T06:03:26.010Z,280
2016-09-03T06:04:25.993Z,290
2016-09-03T06:05:26.677Z,300
2016-09-03T06:06:25.954Z,315
2016-09-03T06:07:25.925Z,320
2016-09-03T06:08:25.910Z,330
2016-09-03T06:09:25.890Z,340
2016-09-03T06:10:25.884Z,350
2016-09-03T06:11:25.852Z,355
2016-09-03T06:12:25.831Z,365
2016-09-03T06:13:25.807Z,375
2016-09-03T06:14:25.795Z,385
2016-09-03T06:15:25.778Z,390
2016-09-03T06:16:25.753Z,395
2016-09-03T06:17:25.735Z,395
2016-09-03T06:18:25.721Z,395
2016-09-03T06:19:25.708Z,395
2016-09-03T06:20:25.675Z,395
2016-09-03T06:21:26.349Z,395
2016-09-03T06:22:25.639Z,400
2016-09-03T06:23:25.617Z,410
2016-09-03T06:24:25.599Z,410
2016-09-03T06:25:25.585Z,415
2016-09-03T06:26:25.566Z,420
2016-09-03T06:27:25.544Z,425
2016-09-03T06:28:25.523Z,430
2016-09-03T06:29:25.503Z,445
2016-09-03T06:30:25.486Z,450
2016-09-03T06:31:25.472Z,460
2016-09-03T06:32:25.441Z,470
2016-09-03T06:33:25.426Z,480
2016-09-03T06:34:25.409Z,485
2016-09-03T06:35:25.387Z,490
2016-09-03T06:36:25.371Z,500
2016-09-03T06:37:25.352Z,510
2016-09-03T06:38:25.334Z,510
2016-09-03T06:39:25.314Z,525
2016-09-03T06:40:25.291Z,525
2016-09-03T06:41:25.288Z,530
2016-09-03T06:42:25.266Z,540
2016-09-03T06:43:25.238Z,540
2016-09-03T06:44:25.225Z,540
2016-09-03T06:45:25.215Z,545
2016-09-03T06:46:25.185Z,550
2016-09-03T06:47:25.164Z,550
2016-09-03T06:48:25.162Z,555
2016-09-03T06:49:25.129Z,560
2016-09-03T06:50:25.112Z,560
2016-09-03T06:51:25.100Z,570
2016-09-03T06:52:25.072Z,575
2016-09-03T06:53:25.059Z,580
2016-09-03T06:54:25.042Z,585
2016-09-03T06:55:25.019Z,590
2016-09-03T06:56:25.016Z,595
2016-09-03T06:57:25.000Z,605
2016-09-03T06:58:24.970Z,610
2016-09-03T06:59:24.952Z,615
2016-09-03T07:00:24.941Z,615
2016-09-03T07:01:24.914Z,620
2016-09-03T07:02:24.896Z,625
2016-09-03T07:03:24.876Z,635
2016-09-03T07:04:24.864Z,640
2016-09-03T07:05:24.847Z,645
2016-09-03T07:06:24.824Z,650
2016-09-03T07:07:24.811Z,655
2016-09-03T07:08:24.798Z,665
2016-09-03T07:09:24.773Z,675
2016-09-03T07:10:24.758Z,690
2016-09-03T07:11:24.737Z,715
2016-09-03T07:12:24.730Z,740
2016-09-03T07:13:24.703Z,765
2016-09-03T07:14:24.688Z,795
2016-09-03T07:15:24.677Z,835
2016-09-03T07:16:24.653Z,800
2016-09-03T07:17:24.639Z,840
2016-09-03T07:18:24.621Z,840
2016-09-03T07:19:24.598Z,815
2016-09-03T07:20:24.585Z,790
2016-09-03T07:21:24.566Z,765
2016-09-03T07:22:24.548Z,790
2016-09-03T07:23:24.538Z,805
2016-09-03T07:24:24.535Z,790
2016-09-03T07:25:24.504Z,785
2016-09-03T07:26:24.503Z,780
2016-09-03T07:27:24.469Z,775
2016-09-03T07:28:24.453Z,770
2016-09-03T07:29:24.433Z,775
2016-09-03T07:30:24.421Z,780
2016-09-03T07:31:24.406Z,780
2016-09-03T07:32:24.388Z,780
2016-09-03T07:33:24.369Z,785
2016-09-03T07:34:24.350Z,785
2016-09-03T07:35:24.345Z,785
2016-09-03T07:36:24.322Z,790
2016-09-03T07:37:24.306Z,790
2016-09-03T07:38:24.287Z,800
2016-09-03T07:39:24.269Z,800
2016-09-03T07:40:24.257Z,810
2016-09-03T07:41:24.237Z,820
2016-09-03T07:42:24.220Z,825
2016-09-03T07:43:24.215Z,830
2016-09-03T07:44:24.196Z,840
2016-09-03T07:45:24.178Z,845
2016-09-03T07:46:24.164Z,860
2016-09-03T07:47:24.142Z,860
2016-09-03T07:48:24.122Z,865
2016-09-03T07:49:24.114Z,870
2016-09-03T07:50:24.091Z,875
2016-09-03T07:51:24.074Z,885
2016-09-03T07:52:24.066Z,885
2016-09-03T07:53:24.054Z,885
2016-09-03T07:54:24.028Z,890
2016-09-03T07:55:24.014Z,900
2016-09-03T07:56:24.003Z,900
2016-09-03T07:57:23.984Z,900
2016-09-03T07:58:23.965Z,905
2016-09-03T07:59:23.947Z,905
2016-09-03T08:00:23.935Z,915
2016-09-03T08:01:23.922Z,910
2016-09-03T08:02:23.903Z,915
2016-09-03T08:03:23.889Z,920
2016-09-03T08:04:23.873Z,920
2016-09-03T08:05:23.857Z,920
2016-09-03T08:06:23.847Z,920
2016-09-03T08:07:23.839Z,925
2016-09-03T08:08:23.815Z,925
2016-09-03T08:09:23.801Z,930
2016-09-03T08:10:23.797Z,930
2016-09-03T08:11:23.764Z,925
2016-09-03T08:12:23.755Z,900
2016-09-03T08:13:23.745Z,890
2016-09-03T08:14:23.718Z,875
2016-09-03T08:15:23.700Z,860
2016-09-03T08:16:23.686Z,860
2016-09-03T08:17:23.674Z,865
2016-09-03T08:18:23.652Z,865
2016-09-03T08:19:23.644Z,870
2016-09-03T08:20:23.635Z,885
2016-09-03T08:21:23.605Z,890
2016-09-03T08:22:23.601Z,890
2016-09-03T08:23:23.584Z,870
2016-09-03T08:24:23.565Z,835
2016-09-03T08:25:23.555Z,795
2016-09-03T08:26:23.558Z,775
2016-09-03T08:27:23.518Z,775
2016-09-03T08:28:23.506Z,775
2016-09-03T08:29:23.488Z,780
2016-09-03T08:30:23.469Z,775
2016-09-03T08:31:23.452Z,775
2016-09-03T08:32:23.452Z,770
2016-09-03T08:33:23.430Z,765
2016-09-03T08:34:23.407Z,760
2016-09-03T08:35:23.394Z,755
2016-09-03T08:36:23.376Z,755
2016-09-03T08:37:23.361Z,755
2016-09-03T08:38:23.348Z,770
2016-09-03T08:39:23.327Z,775
2016-09-03T08:40:23.326Z,785
2016-09-03T08:41:23.301Z,795
2016-09-03T08:42:23.278Z,830
2016-09-03T08:43:23.266Z,855
2016-09-03T08:44:23.250Z,900
2016-09-03T08:45:23.928Z,940
2016-09-03T08:46:23.220Z,930
2016-09-03T08:47:23.205Z,910
2016-09-03T08:48:23.188Z,920
2016-09-03T08:49:23.172Z,960
2016-09-03T08:50:23.154Z,1020
2016-09-03T08:51:23.141Z,1140
2016-09-03T08:52:23.128Z,1255
2016-09-03T08:53:23.109Z,1445
2016-09-03T08:54:23.103Z,1490
2016-09-03T08:55:23.082Z,1335
2016-09-03T08:56:23.080Z,1185
2016-09-03T08:57:23.054Z,1095
2016-09-03T08:58:23.725Z,1085
2016-09-03T08:59:23.024Z,1115
2016-09-03T09:00:23.017Z,1155
2016-09-03T09:01:23.002Z,1115
2016-09-03T09:02:22.979Z,1065
2016-09-03T09:03:22.965Z,1040
2016-09-03T09:04:22.956Z,1030
2016-09-03T09:05:22.937Z,1045
2016-09-03T09:06:22.925Z,1025
2016-09-03T09:07:22.913Z,1045
2016-09-03T09:08:22.896Z,1020
2016-09-03T09:09:22.882Z,1000
2016-09-03T09:10:22.870Z,1000
2016-09-03T09:11:22.859Z,1005
2016-09-03T09:12:22.839Z,1050
2016-09-03T09:13:22.821Z,1075
2016-09-03T09:14:22.812Z,1115
2016-09-03T09:15:22.797Z,1125
2016-09-03T09:16:22.795Z,1100
2016-09-03T09:17:22.773Z,1070
2016-09-03T09:18:22.760Z,1015
2016-09-03T09:19:22.741Z,955
2016-09-03T09:20:22.728Z,970
2016-09-03T09:21:22.710Z,1025
2016-09-03T09:22:22.703Z,1075
2016-09-03T09:23:22.689Z,1095
2016-09-03T09:24:22.674Z,1060
2016-09-03T09:25:22.667Z,1030
2016-09-03T09:26:22.646Z,1035
2016-09-03T09:27:22.631Z,1030
2016-09-03T09:28:22.617Z,970
2016-09-03T09:29:22.603Z,890
2016-09-03T09:30:22.593Z,925
2016-09-03T09:31:22.577Z,995
2016-09-03T09:32:22.565Z,920
2016-09-03T09:33:22.569Z,880
2016-09-03T09:34:22.541Z,865
2016-09-03T09:35:22.522Z,795
2016-09-03T09:36:22.508Z,720
2016-09-03T09:37:22.497Z,700
2016-09-03T09:38:22.488Z,630
2016-09-03T09:39:22.470Z,570
2016-09-03T09:40:22.458Z,570
2016-09-03T09:41:22.462Z,560
2016-09-03T09:42:22.430Z,560
2016-09-03T09:43:22.410Z,575
2016-09-03T09:44:22.403Z,575
2016-09-03T09:45:22.386Z,535
2016-09-03T09:46:22.376Z,510
2016-09-03T09:47:22.357Z,505
2016-09-03T09:48:22.348Z,500
2016-09-03T09:49:22.324Z,500
2016-09-03T09:50:22.310Z,495
2016-09-03T09:51:22.302Z,495
2016-09-03T09:52:22.283Z,495
2016-09-03T09:53:22.265Z,495
2016-09-03T09:54:22.249Z,505
2016-09-03T09:55:22.234Z,505
2016-09-03T09:56:22.222Z,510
2016-09-03T09:57:22.203Z,500
2016-09-03T09:58:22.187Z,500
2016-09-03T09:59:22.168Z,510
2016-09-03T10:00:22.167Z,505
2016-09-03T10:01:22.141Z,510
2016-09-03T10:02:22.121Z,515
2016-09-03T10:03:22.113Z,520
2016-09-03T10:04:22.093Z,515
2016-09-03T10:05:22.076Z,530
2016-09-03T10:06:22.061Z,550
2016-09-03T10:07:22.050Z,635
2016-09-03T10:08:22.030Z,805
2016-09-03T10:09:22.013Z,925
2016-09-03T10:10:21.993Z,950
2016-09-03T10:11:21.982Z,955
2016-09-03T10:12:21.979Z,920
2016-09-03T10:13:21.955Z,865
2016-09-03T10:14:21.936Z,825
2016-09-03T10:15:21.916Z,785
2016-09-03T10:16:21.898Z,895
2016-09-03T10:17:21.894Z,1040
2016-09-03T10:18:21.872Z,1085
2016-09-03T10:19:21.860Z,1065
2016-09-03T10:20:21.842Z,1030
2016-09-03T10:21:21.827Z,1000
2016-09-03T10:22:21.815Z,935
2016-09-03T10:23:21.800Z,860
2016-09-03T10:24:21.779Z,755
2016-09-03T10:25:21.767Z,655
2016-09-03T10:26:21.749Z,580
2016-09-03T10:27:21.731Z,610
2016-09-03T10:28:21.723Z,660
2016-09-03T10:29:21.707Z,665
2016-09-03T10:30:21.689Z,630
2016-09-03T10:31:21.695Z,625
2016-09-03T10:32:21.664Z,665
2016-09-03T10:33:21.646Z,665
2016-09-03T10:34:21.631Z,705
2016-09-03T10:35:21.614Z,760
2016-09-03T10:36:21.606Z,870
2016-09-03T10:37:21.586Z,905
2016-09-03T10:38:21.569Z,985
2016-09-03T10:39:21.559Z,1075
2016-09-03T10:40:21.551Z,1125
2016-09-03T10:41:21.533Z,1180
2016-09-03T10:42:21.514Z,1270
2016-09-03T10:43:21.500Z,1295
2016-09-03T10:44:21.484Z,1215
2016-09-03T10:45:21.471Z,1250
2016-09-03T10:46:21.454Z,1250
2016-09-03T10:47:21.447Z,1245
2016-09-03T10:48:21.429Z,1200
2016-09-03T10:49:21.411Z,1185
2016-09-03T10:50:22.095Z,1200
2016-09-03T10:51:21.385Z,1260
2016-09-03T10:52:21.373Z,1350
2016-09-03T10:53:21.360Z,1400
2016-09-03T10:54:21.350Z,1380
2016-09-03T10:55:21.354Z,1365
2016-09-03T10:56:21.328Z,1350
2016-09-03T10:57:21.307Z,1285
2016-09-03T10:58:21.298Z,1145
2016-09-03T10:59:21.283Z,1035
2016-09-03T11:00:21.268Z,990
2016-09-03T11:01:21.259Z,990
2016-09-03T11:02:21.261Z,985
2016-09-03T11:03:21.229Z,955
2016-09-03T11:04:21.220Z,940
2016-09-03T11:05:21.209Z,920
2016-09-03T11:06:21.196Z,930
2016-09-03T11:07:21.184Z,880
2016-09-03T11:08:21.168Z,780
2016-09-03T11:09:21.159Z,670
2016-09-03T11:10:21.147Z,595
2016-09-03T11:11:21.131Z,560
2016-09-03T11:12:21.122Z,555
2016-09-03T11:13:21.104Z,550
2016-09-03T11:14:21.097Z,545
2016-09-03T11:15:21.077Z,555
2016-09-03T11:16:21.062Z,590
2016-09-03T11:17:21.055Z,620
2016-09-03T11:18:21.039Z,630
2016-09-03T11:19:21.022Z,585
2016-09-03T11:20:21.014Z,600
2016-09-03T11:21:20.997Z,690
2016-09-03T11:22:20.987Z,855
2016-09-03T11:23:20.972Z,865
2016-09-03T11:24:20.959Z,810
2016-09-03T11:25:20.943Z,740
2016-09-03T11:26:20.929Z,645
2016-09-03T11:27:20.912Z,565
2016-09-03T11:28:20.900Z,530
2016-09-03T11:29:20.887Z,500
2016-09-03T11:30:20.874Z,500
2016-09-03T11:31:20.878Z,570
2016-09-03T11:32:20.840Z,640
2016-09-03T11:33:20.830Z,630
2016-09-03T11:34:20.819Z,595
2016-09-03T11:35:20.804Z,565
2016-09-03T11:36:20.804Z,535
2016-09-03T11:37:20.772Z,515
2016-09-03T11:38:20.771Z,510
2016-09-03T11:39:20.741Z,515
2016-09-03T11:40:20.723Z,510
2016-09-03T11:41:20.715Z,545
2016-09-03T11:42:20.703Z,530
2016-09-03T11:43:20.680Z,615
2016-09-03T11:44:20.672Z,615
2016-09-03T11:45:20.657Z,630
2016-09-03T11:46:20.642Z,645
2016-09-03T11:47:20.628Z,685
2016-09-03T11:48:20.608Z,715
2016-09-03T11:49:20.603Z,745
2016-09-03T11:50:20.581Z,680
2016-09-03T11:51:20.565Z,630
2016-09-03T11:52:20.554Z,695
2016-09-03T11:53:20.538Z,725
2016-09-03T11:54:20.529Z,725
2016-09-03T11:55:20.519Z,780
2016-09-03T11:56:20.499Z,870
2016-09-03T11:57:20.487Z,965
2016-09-03T11:58:21.156Z,1080
2016-09-03T11:59:20.453Z,1100
2016-09-03T12:00:20.436Z,1070
2016-09-03T12:01:20.417Z,975
2016-09-03T12:02:20.412Z,885
2016-09-03T12:03:20.398Z,905
2016-09-03T12:04:20.381Z,975
2016-09-03T12:05:20.365Z,995
2016-09-03T12:06:20.350Z,980
2016-09-03T12:07:20.338Z,980
2016-09-03T12:08:20.319Z,1050
2016-09-03T12:09:20.322Z,1035
2016-09-03T12:10:20.295Z,1060
2016-09-03T12:11:20.278Z,1085
2016-09-03T12:12:20.269Z,1050
2016-09-03T12:13:20.260Z,980
2016-09-03T12:14:20.242Z,915
2016-09-03T12:15:20.229Z,960
2016-09-03T12:16:20.217Z,1060
2016-09-03T12:17:20.203Z,975
2016-09-03T12:18:20.201Z,885
2016-09-03T12:19:20.171Z,875
2016-09-03T12:20:20.179Z,925
2016-09-03T12:21:20.151Z,1015
2016-09-03T12:22:20.157Z,1005
2016-09-03T12:23:20.126Z,930
2016-09-03T12:24:20.106Z,875
2016-09-03T12:25:20.102Z,885
2016-09-03T12:26:20.087Z,860
2016-09-03T12:27:20.068Z,875
2016-09-03T12:28:20.057Z,885
2016-09-03T12:29:20.041Z,845
2016-09-03T12:30:20.723Z,845
2016-09-03T12:31:20.018Z,880
2016-09-03T12:32:20.003Z,940
2016-09-03T12:33:19.994Z,980
2016-09-03T12:34:19.979Z,935
2016-09-03T12:35:19.968Z,970
2016-09-03T12:36:19.960Z,995
2016-09-03T12:37:19.935Z,890
2016-09-03T12:38:19.927Z,780
2016-09-03T12:39:19.913Z,705
2016-09-03T12:40:19.901Z,675
2016-09-03T12:41:19.889Z,720
2016-09-03T12:42:19.871Z,685
2016-09-03T12:43:19.864Z,755
2016-09-03T12:44:19.847Z,685
2016-09-03T12:45:19.831Z,715
2016-09-03T12:46:19.820Z,680
2016-09-03T12:47:19.808Z,590
2016-09-03T12:48:19.794Z,645
2016-09-03T12:49:19.782Z,740
2016-09-03T12:50:19.767Z,740
2016-09-03T12:51:19.756Z,655
2016-09-03T12:52:19.752Z,560
2016-09-03T12:53:19.725Z,565
2016-09-03T12:54:19.716Z,715
2016-09-03T12:55:19.702Z,670
2016-09-03T12:56:19.686Z,590
2016-09-03T12:57:20.379Z,560
2016-09-03T12:58:19.655Z,535
2016-09-03T12:59:19.652Z,520
2016-09-03T13:00:19.630Z,510
2016-09-03T13:01:19.614Z,490
2016-09-03T13:02:19.604Z,485
2016-09-03T13:03:19.588Z,490
2016-09-03T13:04:19.575Z,495
2016-09-03T13:05:19.561Z,495
2016-09-03T13:06:19.553Z,490
2016-09-03T13:07:19.537Z,525
2016-09-03T13:08:19.522Z,520
2016-09-03T13:09:19.501Z,500
2016-09-03T13:10:19.490Z,495
2016-09-03T13:11:19.476Z,490
2016-09-03T13:12:20.158Z,500
2016-09-03T13:13:19.450Z,505
2016-09-03T13:14:19.431Z,525
2016-09-03T13:15:19.416Z,565
2016-09-03T13:16:19.406Z,495
2016-09-03T13:17:19.393Z,545
2016-09-03T13:18:19.375Z,550
2016-09-03T13:19:19.362Z,525
2016-09-03T13:20:19.348Z,550
2016-09-03T13:21:19.334Z,625
2016-09-03T13:22:19.321Z,640
2016-09-03T13:23:19.306Z,565
2016-09-03T13:24:19.307Z,555
2016-09-03T13:25:19.279Z,545
2016-09-03T13:26:19.258Z,535
2016-09-03T13:27:19.248Z,520
2016-09-03T13:28:19.239Z,515
2016-09-03T13:29:19.917Z,530
2016-09-03T13:30:19.218Z,530
2016-09-03T13:31:19.194Z,525
2016-09-03T13:32:19.184Z,515
2016-09-03T13:33:19.853Z,515
2016-09-03T13:34:19.148Z,510
2016-09-03T13:35:19.133Z,505
2016-09-03T13:36:19.120Z,500
2016-09-03T13:37:19.099Z,505
2016-09-03T13:38:19.090Z,505
2016-09-03T13:39:19.076Z,510
2016-09-03T13:40:19.059Z,510
2016-09-03T13:41:19.047Z,450
2016-09-03T13:42:19.039Z,495
2016-09-03T13:43:19.019Z,585
2016-09-03T13:44:19.012Z,555
2016-09-03T13:45:18.987Z,540
2016-09-03T13:46:18.989Z,510
2016-09-03T13:47:18.960Z,620
2016-09-03T13:48:18.944Z,645
2016-09-03T13:49:18.935Z,565
2016-09-03T13:50:18.921Z,565
2016-09-03T13:51:19.602Z,570
2016-09-03T13:52:18.892Z,535
2016-09-03T13:53:18.881Z,530
2016-09-03T13:54:18.868Z,530
2016-09-03T13:55:18.853Z,525
2016-09-03T13:56:18.833Z,530
2016-09-03T13:57:18.823Z,530
2016-09-03T13:58:18.803Z,460
2016-09-03T13:59:18.793Z,535
2016-09-03T14:00:18.784Z,540
2016-09-03T14:01:18.763Z,580
2016-09-03T14:02:18.758Z,610
2016-09-03T14:03:18.742Z,575
2016-09-03T14:04:18.727Z,560